Time;durP1;ratioP1;P1;durP2;ratioP2;P2;SDS_P1;SDS_P2;PMS_P1;PMS_P2;Temp;Humidity;BMP_temperature;BMP_pressure;BME280_temperature;BME280_humidity;BME280_pressure;Samples;Min_cycle;Max_cycle;Signal;HPM_P1;HPM_P2
2023/08/25 00:00:43;;;;;;;4.85;2.67;;;19.90;17.90;;;;;;6255620;22;20097;-86
2023/08/25 00:03:30;;;;;;;3.97;2.60;;;19.90;37.90;;;;;;6255682;22;20034;-87
2023/08/25 00:06:20;;;;;;;5.20;2.80;;;19.90;18.80;;;;;;6257092;22;20086;-87
2023/08/25 00:09:09;;;;;;;4.60;2.35;;;19.90;1.00;;;;;;6254614;22;20028;-88
2023/08/25 00:11:56;;;;;;;2.45;2.20;;;19.90;1.00;;;;;;6274533;22;20423;-88
2023/08/25 00:14:43;;;;;;;5.13;2.60;;;19.90;1.00;;;;;;6255569;22;20023;-86
2023/08/25 00:17:33;;;;;;;6.60;2.67;;;19.90;1.00;;;;;;6253612;22;20024;-87
2023/08/25 00:20:21;;;;;;;3.10;2.80;;;19.90;99.90;;;;;;6275122;22;20023;-87
2023/08/25 00:23:09;;;;;;;5.10;2.55;;;19.80;99.90;;;;;;6274432;22;20020;-86
2023/08/25 00:25:56;;;;;;;4.22;2.70;;;19.80;99.90;;;;;;6273461;22;20034;-88
2023/08/25 00:28:43;;;;;;;7.35;2.80;;;19.70;99.90;;;;;;6253909;22;20126;-88
2023/08/25 00:31:31;;;;;;;3.60;2.67;;;19.60;1.00;;;;;;6254959;22;20028;-89
2023/08/25 00:34:18;;;;;;;3.90;2.85;;;19.60;99.90;;;;;;6252982;22;20042;-88
2023/08/25 00:37:08;;;;;;;3.78;2.55;;;19.50;99.90;;;;;;6254436;22;20019;-85
2023/08/25 00:39:55;;;;;;;4.47;2.58;;;19.40;1.00;;;;;;6255405;22;20054;-87
2023/08/25 00:42:43;;;;;;;7.88;2.83;;;19.40;1.00;;;;;;6276675;22;20024;-87
2023/08/25 00:45:37;;;;;;;4.75;3.08;;;19.40;30.20;;;;;;6256236;22;20024;-87
2023/08/25 00:48:25;;;;;;;4.88;2.83;;;19.40;11.90;;;;;;6277389;22;20027;-88
2023/08/25 00:51:15;;;;;;;7.10;2.80;;;19.40;21.70;;;;;;6255305;22;20039;-86
2023/08/25 00:54:03;;;;;;;4.97;2.70;;;19.40;29.00;;;;;;6256873;22;20099;-87
2023/08/25 00:56:51;;;;;;;5.22;2.58;;;19.40;1.00;;;;;;6255663;22;20079;-88
2023/08/25 00:59:39;;;;;;;4.65;2.60;;;19.50;1.00;;;;;;6254728;22;20035;-87
2023/08/25 01:02:28;;;;;;;3.03;2.50;;;19.50;1.00;;;;;;6254660;22;20102;-87
2023/08/25 01:05:21;;;;;;;8.55;3.03;;;19.50;1.00;;;;;;6279732;22;20090;-87
2023/08/25 01:08:08;;;;;;;9.13;2.72;;;19.50;1.00;;;;;;6257385;22;20386;-88
2023/08/25 01:11:26;;;;;;;5.90;2.90;;;19.50;1.00;;;;;;6256651;22;20027;-86
2023/08/25 01:14:44;;;;;;;4.43;2.30;;;19.50;1.00;;;;;;6256814;22;20043;-86
2023/08/25 01:17:48;;;;;;;3.55;2.53;;;19.50;99.90;;;;;;6277057;22;20027;-86
2023/08/25 01:20:39;;;;;;;4.78;2.72;;;19.50;99.90;;;;;;6283830;22;20024;-87
2023/08/25 01:23:47;;;;;;;9.02;2.85;;;19.50;99.90;;;;;;6289385;22;20019;-85
2023/08/25 01:26:34;;;;;;;4.45;2.67;;;19.50;99.90;;;;;;6280486;22;20075;-85
2023/08/25 01:29:21;;;;;;;7.57;2.75;;;19.50;99.90;;;;;;6259419;22;20442;-86
2023/08/25 01:32:09;;;;;;;5.15;2.72;;;19.50;99.90;;;;;;6278642;22;20027;-87
2023/08/25 01:34:57;;;;;;;5.90;3.00;;;19.60;99.90;;;;;;6279586;22;20024;-86
2023/08/25 01:37:56;;;;;;;6.45;2.95;;;19.50;83.80;;;;;;6253109;22;20072;-85
2023/08/25 01:40:51;;;;;;;8.40;2.70;;;19.50;1.00;;;;;;6278847;22;20016;-87
2023/08/25 01:43:44;;;;;;;8.52;2.72;;;19.50;43.30;;;;;;6257836;22;20028;-87
2023/08/25 01:46:36;;;;;;;4.82;2.53;;;19.40;99.90;;;;;;6278432;22;20027;-87
2023/08/25 01:49:24;;;;;;;6.07;2.70;;;19.50;71.50;;;;;;6255304;22;20107;-87
2023/08/25 01:52:15;;;;;;;4.03;3.00;;;19.50;42.60;;;;;;6275989;22;20023;-88
2023/08/25 01:55:04;;;;;;;3.25;2.45;;;19.50;99.90;;;;;;6254843;22;20023;-87
2023/08/25 01:57:51;;;;;;;5.07;2.63;;;19.40;99.90;;;;;;6257270;22;20050;-87
2023/08/25 02:00:39;;;;;;;2.88;2.35;;;19.30;99.90;;;;;;6256496;22;20031;-86
2023/08/25 02:03:27;;;;;;;6.00;2.72;;;19.30;99.90;;;;;;6255961;22;20031;-88
2023/08/25 02:06:17;;;;;;;4.25;3.00;;;19.30;1.00;;;;;;6279734;22;20027;-87
2023/08/25 02:09:04;;;;;;;5.82;2.78;;;19.30;1.00;;;;;;6255025;22;20035;-88
2023/08/25 02:11:51;;;;;;;6.82;2.90;;;19.30;1.00;;;;;;6253239;22;20039;-88
2023/08/25 02:14:39;;;;;;;5.05;2.50;;;19.30;1.00;;;;;;6254966;22;20035;-87
2023/08/25 02:17:26;;;;;;;4.25;2.50;;;19.30;1.00;;;;;;6278404;22;20339;-88
2023/08/25 02:20:13;;;;;;;4.63;2.83;;;19.30;1.00;;;;;;6255469;22;20099;-88
2023/08/25 02:23:00;;;;;;;4.63;2.90;;;19.30;1.00;;;;;;6277798;22;20028;-88
2023/08/25 02:25:48;;;;;;;4.13;2.95;;;19.30;11.10;;;;;;6255971;22;20023;-89
2023/08/25 02:28:35;;;;;;;5.40;2.63;;;19.30;19.00;;;;;;6253831;22;20446;-88
2023/08/25 02:31:22;;;;;;;6.00;2.90;;;19.30;14.00;;;;;;6276715;22;20039;-87
2023/08/25 02:34:10;;;;;;;6.65;3.03;;;19.30;26.60;;;;;;6255812;22;20102;-86
2023/08/25 02:36:58;;;;;;;5.60;3.10;;;19.20;59.40;;;;;;6277925;22;20291;-86
2023/08/25 02:39:47;;;;;;;7.05;2.72;;;19.20;80.70;;;;;;6257003;22;20399;-88
2023/08/25 02:42:34;;;;;;;3.60;2.63;;;19.20;99.90;;;;;;6277994;22;20082;-87
2023/08/25 02:45:23;;;;;;;4.53;2.92;;;19.20;99.90;;;;;;6255055;22;20027;-90
2023/08/25 02:48:11;;;;;;;6.78;3.00;;;19.20;99.90;;;;;;6279514;22;20031;-88
2023/08/25 02:51:00;;;;;;;5.43;2.55;;;19.20;99.90;;;;;;6277378;22;20024;-86
2023/08/25 02:53:48;;;;;;;6.75;3.00;;;19.20;99.90;;;;;;6253358;22;20035;-88
2023/08/25 02:56:35;;;;;;;8.70;2.92;;;19.20;96.90;;;;;;6252959;22;20330;-86
2023/08/25 02:59:22;;;;;;;5.60;3.05;;;19.20;59.10;;;;;;6279047;22;20039;-89
2023/08/25 03:02:10;;;;;;;6.38;2.78;;;19.20;22.20;;;;;;6256477;22;20027;-88
2023/08/25 03:04:57;;;;;;;5.47;2.67;;;19.20;18.30;;;;;;6257100;22;20146;-89
2023/08/25 03:07:44;;;;;;;6.43;3.17;;;19.20;18.70;;;;;;6253729;22;20031;-87
2023/08/25 03:10:32;;;;;;;8.02;2.80;;;19.20;1.00;;;;;;6277691;22;20036;-87
2023/08/25 03:13:22;;;;;;;4.50;2.55;;;19.20;1.00;;;;;;6275912;22;20031;-87
2023/08/25 03:16:13;;;;;;;5.00;2.72;;;19.20;1.00;;;;;;6277234;22;20098;-88
2023/08/25 03:19:01;;;;;;;7.82;3.15;;;19.30;1.00;;;;;;6254531;22;20028;-87
2023/08/25 03:21:48;;;;;;;6.65;3.22;;;19.30;1.00;;;;;;6253582;22;20054;-87
2023/08/25 03:24:35;;;;;;;5.93;2.80;;;19.20;1.00;;;;;;6256632;22;20023;-88
2023/08/25 03:27:23;;;;;;;6.47;3.13;;;19.20;1.00;;;;;;6277829;22;20419;-86
2023/08/25 03:30:10;;;;;;;5.82;2.88;;;19.20;1.00;;;;;;6258094;22;20027;-87
2023/08/25 03:32:59;;;;;;;8.02;3.38;;;19.20;1.00;;;;;;6274998;22;20404;-87
2023/08/25 03:35:49;;;;;;;5.65;3.55;;;19.20;1.00;;;;;;6278875;22;20030;-87
2023/08/25 03:38:36;;;;;;;6.60;3.30;;;19.20;99.90;;;;;;6278162;22;20098;-87
2023/08/25 03:41:26;;;;;;;8.18;3.72;;;19.10;99.90;;;;;;6276278;22;20020;-86
2023/08/25 03:44:13;;;;;;;5.03;3.40;;;19.00;1.00;;;;;;6279135;22;20036;-88
2023/08/25 03:47:00;;;;;;;4.97;3.10;;;19.00;1.00;;;;;;6256650;22;20106;-86
2023/08/25 03:49:50;;;;;;;7.00;3.53;;;19.00;1.00;;;;;;6278545;22;20032;-86
2023/08/25 03:52:37;;;;;;;7.80;3.33;;;19.00;1.00;;;;;;6278344;22;20029;-88
2023/08/25 03:55:25;;;;;;;6.47;3.38;;;19.00;1.00;;;;;;6278693;22;20027;-88
2023/08/25 03:58:13;;;;;;;6.32;3.42;;;18.90;1.00;;;;;;6256258;22;20034;-87
2023/08/25 04:01:00;;;;;;;8.93;3.67;;;18.90;1.00;;;;;;6256350;22;20099;-86
2023/08/25 04:03:50;;;;;;;6.10;3.42;;;18.90;1.00;;;;;;6258561;22;20023;-87
2023/08/25 04:06:37;;;;;;;6.85;3.42;;;18.80;2.90;;;;;;6267863;22;20079;-86
2023/08/25 04:09:25;;;;;;;5.32;3.30;;;18.80;52.70;;;;;;6292871;22;20287;-88
2023/08/25 04:12:12;;;;;;;5.25;3.03;;;18.80;37.20;;;;;;6252809;22;20016;-85
2023/08/25 04:14:59;;;;;;;6.75;3.17;;;18.90;12.90;;;;;;6280882;22;20058;-85
2023/08/25 04:17:51;;;;;;;4.97;3.42;;;18.80;46.40;;;;;;6274262;22;20016;-88
2023/08/25 04:20:39;;;;;;;7.85;3.03;;;18.80;99.90;;;;;;6256486;22;20391;-87
2023/08/25 04:23:28;;;;;;;7.35;3.60;;;18.70;99.90;;;;;;6278242;22;20055;-86
2023/08/25 04:26:16;;;;;;;7.72;3.08;;;18.70;99.90;;;;;;6256771;22;20028;-85
2023/08/25 04:29:06;;;;;;;6.53;3.45;;;18.60;99.90;;;;;;6277164;22;20042;-86
2023/08/25 04:31:53;;;;;;;5.30;3.22;;;18.60;99.90;;;;;;6276353;22;20027;-87
2023/08/25 04:34:40;;;;;;;10.68;4.00;;;18.60;99.90;;;;;;6255672;22;20031;-84
2023/08/25 04:37:28;;;;;;;6.47;3.47;;;18.70;99.90;;;;;;6275072;22;20059;-86
2023/08/25 04:40:15;;;;;;;6.72;3.50;;;18.70;99.90;;;;;;6255467;22;20027;-87
2023/08/25 04:43:04;;;;;;;7.10;3.97;;;18.80;99.90;;;;;;6277772;22;20038;-87
2023/08/25 04:45:51;;;;;;;5.95;3.17;;;18.80;99.90;;;;;;6276578;22;20023;-86
2023/08/25 04:48:38;;;;;;;7.55;3.17;;;18.80;99.90;;;;;;6278722;22;20068;-87
2023/08/25 04:51:27;;;;;;;9.40;3.35;;;18.80;99.90;;;;;;6276850;22;20326;-87
2023/08/25 04:54:14;;;;;;;5.97;3.65;;;18.70;99.90;;;;;;6254889;22;20027;-87
2023/08/25 04:57:01;;;;;;;6.07;3.10;;;18.70;99.90;;;;;;6274919;22;20138;-85
2023/08/25 04:59:48;;;;;;;6.80;3.50;;;18.70;99.90;;;;;;6278481;22;20019;-88
2023/08/25 05:02:35;;;;;;;8.73;3.30;;;18.70;99.90;;;;;;6254629;22;20028;-86
2023/08/25 05:05:25;;;;;;;7.38;3.60;;;18.70;99.90;;;;;;6254807;22;20063;-86
2023/08/25 05:08:12;;;;;;;11.70;4.47;;;18.70;99.90;;;;;;6252106;22;20426;-87
2023/08/25 05:11:00;;;;;;;9.18;3.95;;;18.80;99.90;;;;;;6276961;22;20024;-86
2023/08/25 05:13:47;;;;;;;6.13;3.10;;;18.80;99.90;;;;;;6276323;22;20038;-84
2023/08/25 05:16:36;;;;;;;7.57;3.75;;;18.80;99.90;;;;;;6253763;22;20391;-89
2023/08/25 05:19:24;;;;;;;7.32;3.65;;;18.90;99.90;;;;;;6276430;22;20020;-87
2023/08/25 05:22:11;;;;;;;7.72;3.70;;;19.10;99.90;;;;;;6274195;22;20322;-85
2023/08/25 05:24:58;;;;;;;5.60;3.58;;;19.20;99.90;;;;;;6253565;22;20034;-86
2023/08/25 05:27:48;;;;;;;6.93;3.42;;;19.30;99.90;;;;;;6275179;22;20015;-86
2023/08/25 05:30:38;;;;;;;7.70;3.13;;;19.40;99.90;;;;;;6274477;22;20027;-87
2023/08/25 05:33:25;;;;;;;6.80;3.10;;;19.50;8.20;;;;;;6256605;22;20024;-89
2023/08/25 05:36:12;;;;;;;8.27;3.00;;;19.60;1.00;;;;;;6275105;22;20038;-87
2023/08/25 05:39:31;;;;;;;6.40;3.25;;;19.80;99.90;;;;;;6274988;22;20020;-87
2023/08/25 05:42:20;;;;;;;4.80;2.83;;;20.00;99.90;;;;;;6254144;22;20490;-89
2023/08/25 05:45:08;;;;;;;8.38;3.95;;;20.10;1.00;;;;;;6276867;22;20022;-87
2023/08/25 05:47:55;;;;;;;6.45;3.45;;;20.10;1.00;;;;;;6257686;22;20035;-86
2023/08/25 05:50:43;;;;;;;6.15;3.40;;;20.10;99.90;;;;;;6277292;22;20371;-87
2023/08/25 05:53:30;;;;;;;16.45;3.55;;;20.10;99.90;;;;;;6277110;22;20036;-88
2023/08/25 05:56:18;;;;;;;11.07;3.88;;;20.10;1.00;;;;;;6253196;22;20031;-88
2023/08/25 05:59:05;;;;;;;5.35;3.20;;;20.10;1.00;;;;;;6276014;22;20162;-88
2023/08/25 06:01:53;;;;;;;6.05;3.03;;;20.10;57.50;;;;;;6253304;22;20411;-88
2023/08/25 06:04:43;;;;;;;7.30;3.40;;;20.20;99.90;;;;;;6264943;22;20024;-87
2023/08/25 06:07:30;;;;;;;9.20;4.10;;;20.20;53.40;;;;;;6275508;22;20024;-89
2023/08/25 06:10:19;;;;;;;6.57;3.78;;;20.20;89.00;;;;;;6254806;22;20043;-87
2023/08/25 06:13:09;;;;;;;7.93;3.30;;;20.30;99.90;;;;;;6252658;22;20031;-89
2023/08/25 06:15:56;;;;;;;7.25;3.28;;;20.40;99.90;;;;;;6276104;22;20031;-90
2023/08/25 06:18:44;;;;;;;8.65;3.58;;;20.40;99.90;;;;;;6236636;22;20023;-93
2023/08/25 06:21:32;;;;;;;11.70;3.80;;;20.40;99.90;;;;;;6254622;22;20020;-88
2023/08/25 06:24:21;;;;;;;6.85;3.80;;;20.30;99.90;;;;;;6256245;22;20019;-92
2023/08/25 06:27:09;;;;;;;6.53;3.35;;;20.20;1.00;;;;;;6253305;22;20125;-93
2023/08/25 06:29:58;;;;;;;6.88;3.03;;;20.20;99.90;;;;;;6279495;22;20465;-91
2023/08/25 06:33:04;;;;;;;8.40;3.50;;;20.30;1.00;;;;;;6264623;22;20033;-93
2023/08/25 06:35:51;;;;;;;7.60;3.47;;;20.30;99.90;;;;;;6285079;22;20028;-89
2023/08/25 06:38:39;;;;;;;4.88;3.25;;;20.20;99.90;;;;;;6262129;22;20016;-87
2023/08/25 06:41:41;;;;;;;9.25;3.85;;;20.30;1.00;;;;;;6275719;22;20074;-87
2023/08/25 06:44:32;;;;;;;6.82;3.55;;;20.40;99.90;;;;;;6252476;22;20024;-88
2023/08/25 06:47:19;;;;;;;8.90;4.13;;;20.30;99.90;;;;;;6252347;22;20020;-88
2023/08/25 06:50:09;;;;;;;5.35;3.78;;;20.00;99.90;;;;;;6275987;22;20083;-91
2023/08/25 06:52:56;;;;;;;6.53;4.30;;;19.70;1.00;;;;;;6275756;22;20391;-88
2023/08/25 06:55:43;;;;;;;5.32;3.35;;;19.50;99.90;;;;;;6255619;22;20024;-88
2023/08/25 06:58:36;;;;;;;6.35;4.32;;;19.40;99.90;;;;;;6260061;22;20035;-88
2023/08/25 07:01:24;;;;;;;10.07;3.97;;;19.30;99.90;;;;;;6290613;22;20028;-88
2023/08/25 07:04:11;;;;;;;6.22;3.70;;;19.30;99.90;;;;;;6290907;22;20024;-88
2023/08/25 07:07:00;;;;;;;4.45;4.03;;;19.30;99.90;;;;;;6267998;22;20073;-89
2023/08/25 07:09:50;;;;;;;5.03;4.03;;;19.20;99.90;;;;;;6268728;22;20035;-87
2023/08/25 07:12:39;;;;;;;5.53;3.80;;;19.10;99.90;;;;;;6300804;22;20089;-85
2023/08/25 07:15:27;;;;;;;5.80;4.00;;;19.00;99.90;;;;;;6278336;22;20034;-85
2023/08/25 07:18:24;;;;;;;9.10;5.03;;;18.90;99.90;;;;;;6272670;22;20079;-93
2023/08/25 07:21:35;;;;;;;7.88;4.30;;;18.70;99.90;;;;;;6271787;22;20161;-92
2023/08/25 07:24:28;;;;;;;7.88;5.25;;;18.60;99.90;;;;;;6270001;22;20023;-92
2023/08/25 07:31:18;;;;;;;12.60;5.53;;;18.40;99.90;;;;;;6157708;23;20032;-92
2023/08/25 07:35:22;;;;;;;11.65;5.75;;;18.40;99.90;;;;;;6054535;23;20034;-93
2023/08/25 07:38:26;;;;;;;11.45;6.30;;;18.30;99.90;;;;;;6117751;23;20449;-93
2023/08/25 07:41:38;;;;;;;10.75;6.18;;;18.30;99.90;;;;;;6178321;23;20567;-90
2023/08/25 07:44:55;;;;;;;11.32;6.90;;;18.30;99.90;;;;;;6186422;23;20091;-93
2023/08/25 07:47:55;;;;;;;15.32;6.72;;;18.20;99.90;;;;;;6164020;23;20119;-92
2023/08/25 07:51:07;;;;;;;9.95;5.68;;;18.20;99.90;;;;;;6170136;23;20377;-94
2023/08/25 07:54:38;;;;;;;6.88;4.93;;;18.20;99.90;;;;;;6176172;23;20048;-93
2023/08/25 08:02:45;;;;;;;;;;;;;;;;;;;;;
2023/08/25 08:06:02;;;;;;;10.05;5.32;;;18.10;99.90;;;;;;6039463;23;20030;-91
2023/08/25 08:17:16;;;;;;;;;;;;;;;;;;;;;
2023/08/25 08:20:50;;;;;;;11.98;5.43;;;18.00;99.90;;;;;;6272666;22;20450;-90
2023/08/25 08:23:47;;;;;;;15.48;4.70;;;18.00;99.90;;;;;;6288680;22;20057;-94
2023/08/25 08:39:50;;;;;;;10.40;5.85;;;17.80;99.90;;;;;;6266631;22;20078;-92
2023/08/25 08:43:14;;;;;;;;;;;;;;;;;;;;;
2023/08/25 08:46:17;;;;;;;12.10;6.22;;;17.90;99.90;;;;;;6279717;22;20712;-91
2023/08/25 08:57:33;;;;;;;12.00;7.50;;;18.00;99.90;;;;;;6279146;22;20413;-90
2023/08/25 09:00:31;;;;;;;11.88;8.27;;;18.10;99.90;;;;;;6257044;22;20224;-88
2023/08/25 09:03:41;;;;;;;16.27;8.80;;;18.20;99.90;;;;;;6258916;22;20441;-90
2023/08/25 09:06:35;;;;;;;14.50;8.05;;;18.20;99.90;;;;;;6256363;22;20027;-92
2023/08/25 09:09:57;;;;;;;;;;;;;;;;;;;;;
2023/08/25 09:12:51;;;;;;;11.65;7.15;;;18.10;99.90;;;;;;6276518;22;20031;-90
2023/08/25 09:16:02;;;;;;;10.90;7.10;;;18.10;99.90;;;;;;6184110;23;20036;-91
2023/08/25 09:19:16;;;;;;;8.30;6.18;;;18.20;99.90;;;;;;6184318;23;20029;-92
2023/08/25 09:22:30;;;;;;;8.52;6.18;;;18.40;99.90;;;;;;6188077;23;20110;-90
2023/08/25 09:25:41;;;;;;;11.27;5.85;;;18.50;99.90;;;;;;6192008;23;20109;-88
2023/08/25 09:28:36;;;;;;;8.60;5.38;;;18.60;99.90;;;;;;6186576;23;20071;-88
2023/08/25 09:31:29;;;;;;;8.65;5.68;;;18.80;99.90;;;;;;6186912;23;20055;-89
2023/08/25 09:34:17;;;;;;;14.77;6.22;;;19.10;99.90;;;;;;6223993;22;20405;-88
2023/08/25 09:37:08;;;;;;;8.65;5.00;;;19.30;99.90;;;;;;6265272;22;20063;-89
2023/08/25 09:39:59;;;;;;;9.90;5.35;;;19.40;99.90;;;;;;6264947;22;20020;-90
2023/08/25 09:42:49;;;;;;;9.18;4.57;;;19.70;99.90;;;;;;6263930;22;20106;-88
2023/08/25 09:45:38;;;;;;;6.15;4.20;;;19.80;99.90;;;;;;6269022;22;20091;-91
2023/08/25 09:48:26;;;;;;;5.75;3.25;;;20.20;99.90;;;;;;6287291;22;20099;-88
2023/08/25 09:51:17;;;;;;;8.00;3.92;;;20.70;99.90;;;;;;6260838;22;20027;-89
2023/08/25 09:54:18;;;;;;;7.95;3.28;;;21.20;99.90;;;;;;6278968;22;20174;-89
2023/08/25 09:57:15;;;;;;;4.88;3.20;;;21.20;99.90;;;;;;6259192;22;20044;-92
2023/08/25 10:00:04;;;;;;;7.93;2.95;;;21.20;1.00;;;;;;6285950;22;20027;-90
2023/08/25 10:02:58;;;;;;;6.65;3.00;;;21.40;99.90;;;;;;6262320;22;20066;-87
2023/08/25 10:05:55;;;;;;;3.38;3.08;;;21.70;99.90;;;;;;6274073;22;20099;-86
2023/08/25 10:09:04;;;;;;;2.97;2.53;;;21.70;1.00;;;;;;6257207;22;20023;-87
2023/08/25 10:11:56;;;;;;;5.05;2.88;;;21.80;99.90;;;;;;6274580;22;20028;-90
2023/08/25 10:14:51;;;;;;;4.05;2.67;;;21.90;1.00;;;;;;6255098;22;20063;-84
2023/08/25 10:17:46;;;;;;;2.72;2.30;;;21.80;99.90;;;;;;6274928;22;20024;-91
2023/08/25 10:20:43;;;;;;;3.65;2.70;;;21.90;99.90;;;;;;6257503;22;20035;-91
2023/08/25 10:23:36;;;;;;;7.57;2.70;;;21.70;74.80;;;;;;6253282;22;20051;-88
2023/08/25 10:26:32;;;;;;;4.75;2.80;;;21.60;99.90;;;;;;6254557;22;20024;-88
2023/08/25 10:29:33;;;;;;;4.28;2.90;;;21.60;99.90;;;;;;6256463;22;20122;-91
2023/08/25 10:32:53;;;;;;;6.45;3.38;;;21.50;99.90;;;;;;6275861;22;20031;-92
2023/08/25 10:36:12;;;;;;;5.45;3.22;;;21.40;99.90;;;;;;6257979;22;20095;-89
2023/08/25 10:39:13;;;;;;;;;;;;;;;;;;;;;
2023/08/25 10:42:06;;;;;;;8.73;3.22;;;21.30;99.90;;;;;;6277397;22;20020;-90
2023/08/25 10:44:55;;;;;;;5.10;3.58;;;21.50;99.90;;;;;;6253817;22;20023;-88
2023/08/25 10:47:47;;;;;;;6.32;3.10;;;21.80;45.80;;;;;;6258901;22;20110;-88
2023/08/25 10:50:34;;;;;;;5.95;3.40;;;22.40;1.00;;;;;;6276297;22;20031;-87
2023/08/25 10:53:44;;;;;;;5.45;3.13;;;22.80;1.00;;;;;;6282767;22;20028;-89
2023/08/25 10:56:39;;;;;;;6.10;3.22;;;22.70;99.90;;;;;;6254635;22;20032;-91
2023/08/25 10:59:29;;;;;;;3.97;3.45;;;22.70;99.90;;;;;;6253105;22;20572;-93
2023/08/25 11:02:38;;;;;;;5.95;3.88;;;22.70;99.90;;;;;;6255966;22;20034;-86
2023/08/25 11:05:30;;;;;;;6.22;3.47;;;22.80;99.90;;;;;;6255804;22;20020;-87
2023/08/25 11:08:43;;;;;;;4.65;3.25;;;22.70;99.90;;;;;;6254667;22;20027;-90
2023/08/25 11:11:35;;;;;;;5.32;3.13;;;22.70;99.90;;;;;;6277012;22;20112;-89
2023/08/25 11:14:31;;;;;;;6.18;3.70;;;22.60;99.90;;;;;;6256871;22;20050;-90
2023/08/25 11:17:21;;;;;;;6.00;3.85;;;22.70;99.90;;;;;;6255947;22;20047;-92
2023/08/25 11:20:09;;;;;;;6.20;4.22;;;22.90;99.90;;;;;;6277070;22;20030;-88
2023/08/25 11:23:02;;;;;;;5.83;3.83;;;22.90;99.90;;;;;;6253972;22;20120;-87
2023/08/25 11:25:53;;;;;;;5.60;3.33;;;23.40;99.90;;;;;;6254689;22;20399;-87
2023/08/25 11:32:36;;;;;;;5.65;3.33;;;23.60;1.00;;;;;;6156281;23;20013;-93
2023/08/25 11:35:49;;;;;;;5.18;3.90;;;23.50;1.00;;;;;;6139368;23;20508;-91
2023/08/25 11:39:26;;;;;;;;;;;;;;;;;;;;;
2023/08/25 11:42:23;;;;;;;6.80;3.83;;;23.20;1.00;;;;;;6171622;22;20023;-93
2023/08/25 11:45:58;;;;;;;4.57;3.72;;;22.90;1.00;;;;;;6279813;22;20034;-91
2023/08/25 11:48:26;;;;;;;4.20;3.70;;;22.90;1.00;;;;;;6281733;22;20040;-92
2023/08/25 11:51:17;;;;;;;5.03;4.00;;;23.20;1.00;;;;;;6275497;22;20027;-90
2023/08/25 11:54:07;;;;;;;6.05;3.70;;;23.50;1.00;;;;;;6276940;22;20072;-90
2023/08/25 11:57:15;;;;;;;3.58;3.28;;;24.10;99.90;;;;;;6279842;22;20031;-92
2023/08/25 12:00:31;;;;;;;7.97;3.40;;;24.70;99.90;;;;;;6276638;22;20118;-90
2023/08/25 12:03:55;;;;;;;4.75;3.33;;;25.00;65.00;;;;;;6259524;22;20077;-92
2023/08/25 12:07:05;;;;;;;5.55;3.78;;;25.60;1.00;;;;;;6259534;22;20023;-93
2023/08/25 12:10:09;;;;;;;8.18;3.75;;;25.40;1.00;;;;;;6280884;22;20028;-91
2023/08/25 12:12:57;;;;;;;4.15;3.75;;;25.40;99.90;;;;;;6277393;22;20054;-92
2023/08/25 12:15:45;;;;;;;4.88;3.97;;;25.00;99.90;;;;;;6274763;22;20332;-89
2023/08/25 12:18:50;;;;;;;6.70;3.90;;;24.60;1.00;;;;;;6255149;22;20023;-92
2023/08/25 12:21:40;;;;;;;4.32;3.92;;;24.30;1.00;;;;;;6276207;22;20410;-91
2023/08/25 12:24:29;;;;;;;7.00;4.00;;;24.20;1.00;;;;;;6277770;22;20015;-91
2023/08/25 12:27:55;;;;;;;4.63;4.10;;;23.90;1.00;;;;;;6253596;22;20034;-92
2023/08/25 12:31:20;;;;;;;6.57;4.13;;;23.80;1.00;;;;;;6236652;22;20038;-90
2023/08/25 12:34:48;;;;;;;9.52;4.30;;;23.80;1.00;;;;;;6278189;22;20146;-93
2023/08/25 12:37:57;;;;;;;6.13;4.47;;;23.90;99.90;;;;;;6279001;22;20034;-93
2023/08/25 12:44:48;;;;;;;5.43;4.13;;;24.10;99.90;;;;;;6160507;23;20025;-92
2023/08/25 12:48:05;;;;;;;7.28;3.90;;;24.20;99.90;;;;;;6194828;22;20287;-91
2023/08/25 12:51:02;;;;;;;8.63;4.53;;;24.30;99.90;;;;;;6282750;22;20038;-92
2023/08/25 12:54:25;;;;;;;;;;;;;;;;;;;;;
2023/08/25 12:57:23;;;;;;;6.80;4.22;;;24.50;99.90;;;;;;6283126;22;20036;-94
2023/08/25 13:01:06;;;;;;;;;;;;;;;;;;;;;
2023/08/25 13:04:23;;;;;;;6.28;3.60;;;24.50;99.90;;;;;;6280060;22;20011;-92
2023/08/25 13:07:18;;;;;;;5.50;4.03;;;24.50;99.90;;;;;;6277511;22;20338;-92
2023/08/25 13:19:04;;;;;;;5.18;3.75;;;24.80;99.90;;;;;;6095005;23;20018;-90
2023/08/25 13:22:23;;;;;;;6.88;3.58;;;24.70;21.30;;;;;;6095058;23;20050;-92
2023/08/25 13:25:57;;;;;;;7.45;3.83;;;24.70;13.50;;;;;;6077942;23;20030;-88
2023/08/25 13:29:07;;;;;;;8.55;3.63;;;24.70;1.00;;;;;;6146411;23;20039;-88
2023/08/25 13:32:21;;;;;;;5.15;3.60;;;24.80;1.00;;;;;;6169542;23;20390;-91
2023/08/25 13:39:45;;;;;;;4.88;3.58;;;25.20;1.00;;;;;;6163988;23;20483;-92
2023/08/25 13:43:14;;;;;;;6.32;3.42;;;25.40;1.00;;;;;;6098624;23;20040;-92
2023/08/25 13:46:16;;;;;;;5.32;3.67;;;25.30;1.00;;;;;;6119239;23;20107;-92
2023/08/25 13:49:29;;;;;;;6.15;3.35;;;25.30;1.00;;;;;;6199645;23;20021;-92
2023/08/25 13:56:28;;;;;;;5.65;3.45;;;25.80;99.90;;;;;;6217364;23;20079;-92
2023/08/25 13:59:43;;;;;;;6.68;3.72;;;26.10;99.90;;;;;;6218929;23;20043;-92
2023/08/25 14:02:52;;;;;;;6.68;3.30;;;26.60;99.90;;;;;;6220086;23;20060;-91
2023/08/25 14:06:22;;;;;;;5.07;3.38;;;26.50;99.90;;;;;;6253280;22;20038;-92
2023/08/25 14:09:38;;;;;;;6.53;3.80;;;26.00;99.90;;;;;;6204069;22;20023;-92
2023/08/25 14:12:59;;;;;;;5.97;3.30;;;25.80;99.90;;;;;;6285641;22;20094;-93
2023/08/25 14:15:57;;;;;;;5.32;3.40;;;25.90;99.90;;;;;;6285513;22;20027;-91
2023/08/25 14:18:44;;;;;;;4.60;3.25;;;25.90;99.90;;;;;;6289881;22;20085;-91
2023/08/25 14:22:06;;;;;;;6.60;3.40;;;25.80;99.90;;;;;;6261908;22;20134;-92
2023/08/25 14:24:58;;;;;;;8.18;3.35;;;25.80;99.90;;;;;;6278233;22;20020;-93
2023/08/25 14:27:51;;;;;;;4.22;3.17;;;25.90;99.90;;;;;;6259065;22;20024;-93
2023/08/25 14:30:55;;;;;;;5.13;3.20;;;26.10;99.90;;;;;;6262490;22;20027;-90
2023/08/25 14:33:43;;;;;;;4.28;3.15;;;26.20;99.90;;;;;;6281432;22;20094;-92
2023/08/25 14:37:20;;;;;;;5.75;3.65;;;26.40;99.90;;;;;;6285314;22;20038;-92
2023/08/25 14:40:41;;;;;;;4.68;3.40;;;26.20;99.90;;;;;;6281458;22;20065;-92
2023/08/25 14:43:58;;;;;;;3.70;3.30;;;25.90;99.90;;;;;;6260454;22;20069;-92
2023/08/25 14:46:46;;;;;;;7.85;3.55;;;26.00;99.90;;;;;;6164658;22;20021;-93
2023/08/25 14:50:05;;;;;;;5.47;3.58;;;26.10;99.90;;;;;;6257234;22;20027;-91
2023/08/25 14:52:57;;;;;;;5.10;3.40;;;26.10;99.90;;;;;;6292366;22;20062;-87
2023/08/25 14:55:54;;;;;;;7.05;3.65;;;26.00;99.90;;;;;;6272649;22;20023;-94
2023/08/25 14:58:44;;;;;;;5.35;3.90;;;26.20;99.90;;;;;;6281196;22;20034;-94
2023/08/25 15:01:31;;;;;;;7.38;4.18;;;26.40;99.90;;;;;;6283042;22;20020;-95
2023/08/25 15:04:21;;;;;;;5.38;4.07;;;26.30;99.90;;;;;;6260258;22;20413;-94
2023/08/25 15:07:11;;;;;;;7.93;3.90;;;26.50;99.90;;;;;;6267572;22;20394;-93
2023/08/25 15:09:59;;;;;;;5.80;4.18;;;26.70;99.90;;;;;;6293319;22;20023;-94
2023/08/25 15:12:49;;;;;;;5.30;4.15;;;26.70;99.90;;;;;;6288414;22;20031;-93
2023/08/25 15:15:36;;;;;;;6.10;4.30;;;26.70;99.90;;;;;;6259375;22;20028;-92
2023/08/25 15:18:24;;;;;;;8.77;4.15;;;27.50;99.90;;;;;;6279404;22;20039;-92
2023/08/25 15:21:11;;;;;;;7.47;4.13;;;27.50;99.90;;;;;;6260373;22;20051;-92
2023/08/25 15:23:59;;;;;;;6.90;4.95;;;27.70;99.90;;;;;;6282230;22;20024;-94
2023/08/25 15:26:46;;;;;;;6.07;4.00;;;27.90;99.90;;;;;;6265977;22;20024;-93
2023/08/25 15:29:33;;;;;;;5.45;4.57;;;28.30;99.90;;;;;;6261447;22;20035;-93
2023/08/25 15:32:39;;;;;;;6.75;4.70;;;27.70;99.90;;;;;;6282597;22;20106;-91
2023/08/25 15:35:29;;;;;;;7.03;4.63;;;27.10;99.90;;;;;;6281184;22;20081;-93
2023/08/25 15:38:18;;;;;;;8.00;4.88;;;26.30;99.90;;;;;;6268125;22;20024;-94
2023/08/25 15:41:08;;;;;;;5.57;4.97;;;26.00;99.90;;;;;;6261792;22;20083;-93
2023/08/25 15:43:58;;;;;;;7.25;4.78;;;25.90;99.90;;;;;;6286272;22;20028;-91
2023/08/25 15:46:45;;;;;;;6.93;5.10;;;25.90;99.90;;;;;;6282508;22;20024;-91
2023/08/25 15:49:33;;;;;;;5.43;4.45;;;26.30;99.90;;;;;;6284160;22;20070;-93
2023/08/25 15:52:22;;;;;;;4.97;4.40;;;27.20;99.90;;;;;;6262663;22;20328;-92
2023/08/25 15:55:10;;;;;;;7.50;5.05;;;27.60;99.90;;;;;;6281950;22;20114;-94
2023/08/25 15:57:59;;;;;;;5.53;4.50;;;27.40;99.90;;;;;;6284624;22;20047;-93
2023/08/25 16:00:51;;;;;;;9.68;4.55;;;27.10;99.90;;;;;;6261993;22;20233;-92
2023/08/25 16:03:39;;;;;;;5.00;4.50;;;26.90;99.90;;;;;;6258535;22;20070;-92
2023/08/25 16:06:27;;;;;;;6.85;4.53;;;27.00;99.90;;;;;;6280515;22;20038;-94
2023/08/25 16:09:14;;;;;;;7.55;5.15;;;27.50;99.90;;;;;;6260035;22;20023;-93
2023/08/25 16:12:02;;;;;;;7.03;4.65;;;27.80;99.90;;;;;;6260515;22;20034;-93
2023/08/25 16:14:50;;;;;;;6.55;4.85;;;27.70;99.90;;;;;;6264159;22;20027;-93
2023/08/25 16:17:40;;;;;;;5.95;4.63;;;27.90;99.90;;;;;;6259370;22;20031;-93
2023/08/25 16:20:31;;;;;;;5.72;4.60;;;28.40;99.90;;;;;;6285063;22;20091;-90
2023/08/25 16:23:19;;;;;;;7.47;4.07;;;28.60;99.90;;;;;;6286063;22;20095;-92
2023/08/25 16:26:10;;;;;;;6.00;4.15;;;28.80;99.90;;;;;;6263995;22;20019;-94
2023/08/25 16:28:59;;;;;;;9.50;4.72;;;29.00;99.90;;;;;;6267837;22;20023;-94